aviador You're here:

BKPR Decoded Metar

PRISHTINA in SERBIA
Report Time2017-09-24 01:30:00
UTC Time2017-09-24 01:27:54
Flight Rules vfr VFR
WindCalm
Visibility9999 m
Phenomena:N/A
Clouds:N/A
Expected CloudBase > 1,600 ft AGL from Temp-Dew spread
CeilingNone
Temp08°C (ISA -3)
Dew Point04°C (76% RH)
AAT6.7°C
QNH1021 hPa
Density Alt1,348 ft
Elevation1,890 ft
Report Wrong Elevation
Raw Report
BKPR 240130Z 00000KT CAVOK 08/04 Q1021 NOSIG=

Extra information for BKPR:More info

Metar Taf Metar & Taf Last 4 Metars F.Rules Stats Wind Profile Meteogram Temp Stats Airport Information Weather charts Add Link Nearby VenuesMetar ALERT Operation Metar Decoded Social comments